Time;durP1;ratioP1;P1;durP2;ratioP2;P2;SDS_P1;SDS_P2;PMS_P1;PMS_P2;Temp;Humidity;BMP_temperature;BMP_pressure;BME280_temperature;BME280_humidity;BME280_pressure;Samples;Min_cycle;Max_cycle;Signal;HPM_P1;HPM_P2
2022/05/08 00:01:51;;;;;;;;;;;13.60;99.90;;;;;;5057218;28;19954;-79
2022/05/08 00:04:17;;;;;;;;;;;13.50;99.90;;;;;;5057143;28;19991;-79
2022/05/08 00:06:42;;;;;;;;;;;13.30;99.90;;;;;;5075049;28;20003;-79
2022/05/08 00:09:08;;;;;;;;;;;12.90;99.90;;;;;;5057115;28;19940;-80
2022/05/08 00:11:34;;;;;;;;;;;12.90;99.90;;;;;;5075178;28;19930;-80
2022/05/08 00:13:59;;;;;;;;;;;13.20;99.90;;;;;;5074948;28;19905;-81
2022/05/08 00:16:25;;;;;;;;;;;13.40;99.90;;;;;;5075375;28;20011;-80
2022/05/08 00:18:50;;;;;;;;;;;13.50;99.90;;;;;;5074807;28;19912;-80
2022/05/08 00:21:16;;;;;;;;;;;13.50;99.90;;;;;;5074688;28;19953;-79
2022/05/08 00:23:41;;;;;;;;;;;13.40;99.90;;;;;;5074656;28;19995;-80
2022/05/08 00:26:08;;;;;;;;;;;13.30;99.90;;;;;;5074645;28;19915;-80
2022/05/08 00:28:37;;;;;;;;;;;13.30;99.90;;;;;;5074946;28;19916;-80
2022/05/08 00:31:02;;;;;;;;;;;13.30;99.90;;;;;;5074600;28;19920;-79
2022/05/08 00:33:28;;;;;;;;;;;13.20;99.90;;;;;;5074562;28;19904;-78
2022/05/08 00:35:54;;;;;;;;;;;13.20;99.90;;;;;;5075060;28;19943;-81
2022/05/08 00:38:19;;;;;;;;;;;13.20;99.90;;;;;;5056328;28;19924;-79
2022/05/08 00:40:45;;;;;;;;;;;13.30;99.90;;;;;;5075006;28;19947;-79
2022/05/08 00:43:31;;;;;;;;;;;13.30;99.90;;;;;;5074350;28;19912;-77
2022/05/08 00:45:57;;;;;;;;;;;13.30;99.90;;;;;;5074253;28;19958;-78
2022/05/08 00:48:22;;;;;;;;;;;13.10;99.90;;;;;;5074366;28;20419;-77
2022/05/08 00:50:49;;;;;;;;;;;12.90;99.90;;;;;;5056273;28;19943;-79
2022/05/08 00:53:15;;;;;;;;;;;12.90;99.90;;;;;;5056163;28;20275;-79
2022/05/08 00:55:41;;;;;;;;;;;13.00;99.90;;;;;;5074121;28;19904;-80
2022/05/08 00:58:06;;;;;;;;;;;12.90;99.90;;;;;;5056203;28;19904;-78
2022/05/08 01:00:32;;;;;;;;;;;13.00;99.90;;;;;;5074633;28;20281;-81
2022/05/08 01:02:58;;;;;;;;;;;13.20;99.90;;;;;;5073980;28;19908;-80
2022/05/08 01:05:23;;;;;;;;;;;13.20;99.90;;;;;;5073921;28;19947;-76
2022/05/08 01:07:49;;;;;;;;;;;13.00;99.90;;;;;;5073268;28;19912;-79
2022/05/08 01:10:16;;;;;;;;;;;13.20;99.90;;;;;;5073932;28;20388;-80
2022/05/08 01:12:44;;;;;;;;;;;13.10;99.90;;;;;;5073924;28;19905;-79
2022/05/08 01:15:18;;;;;;;;;;;13.20;99.90;;;;;;5073924;28;19912;-78
2022/05/08 01:17:44;;;;;;;;;;;13.00;99.90;;;;;;5074000;28;19987;-78
2022/05/08 01:20:10;;;;;;;;;;;13.10;99.90;;;;;;5073841;28;19912;-79
2022/05/08 01:22:36;;;;;;;;;;;13.30;99.90;;;;;;5073674;28;19927;-81
2022/05/08 01:25:02;;;;;;;;;;;13.40;99.90;;;;;;5074298;28;20353;-78
2022/05/08 01:27:27;;;;;;;;;;;13.40;99.90;;;;;;5073575;28;19915;-80
2022/05/08 01:29:53;;;;;;;;;;;13.30;99.90;;;;;;5073755;28;19904;-79
2022/05/08 01:32:19;;;;;;;;;;;13.20;99.90;;;;;;5073619;28;19913;-81
2022/05/08 01:34:45;;;;;;;;;;;13.10;99.90;;;;;;5073846;28;19919;-79
2022/05/08 01:37:10;;;;;;;;;;;13.10;99.90;;;;;;5073448;28;20281;-79
2022/05/08 01:39:36;;;;;;;;;;;13.10;99.90;;;;;;5073628;28;19908;-80
2022/05/08 01:42:06;;;;;;;;;;;13.10;99.90;;;;;;5073521;28;20372;-78
2022/05/08 01:44:32;;;;;;;;;;;13.20;99.90;;;;;;5073924;28;19904;-78
2022/05/08 01:49:42;;;;;;;;;;;12.70;99.90;;;;;;5073278;28;19910;-79
2022/05/08 01:52:07;;;;;;;;;;;12.50;99.90;;;;;;5073524;28;19995;-80
2022/05/08 01:54:33;;;;;;;;;;;12.60;99.90;;;;;;5055445;28;19950;-79
2022/05/08 01:56:59;;;;;;;;;;;12.70;99.90;;;;;;5073468;28;19950;-81
2022/05/08 01:59:24;;;;;;;;;;;12.80;99.90;;;;;;5073402;28;19904;-79
2022/05/08 02:01:50;;;;;;;;;;;12.90;99.90;;;;;;5073364;28;19912;-77
2022/05/08 02:04:16;;;;;;;;;;;12.70;99.90;;;;;;5073411;28;20353;-80
2022/05/08 02:06:42;;;;;;;;;;;12.50;99.90;;;;;;5073511;28;20404;-79
2022/05/08 02:09:07;;;;;;;;;;;12.40;99.90;;;;;;5055344;28;19927;-79
2022/05/08 02:11:33;;;;;;;;;;;12.20;99.90;;;;;;5073221;28;20281;-80
2022/05/08 02:13:59;;;;;;;;;;;12.10;99.90;;;;;;5073575;28;19947;-81
2022/05/08 02:16:24;;;;;;;;;;;12.10;99.90;;;;;;5073229;28;19912;-80
2022/05/08 02:18:50;;;;;;;;;;;12.10;99.90;;;;;;5075386;28;19909;-81
2022/05/08 02:21:16;;;;;;;;;;;12.30;99.90;;;;;;5077167;28;19904;-78
2022/05/08 02:23:42;;;;;;;;;;;12.40;99.90;;;;;;5077195;28;19954;-80
2022/05/08 02:26:08;;;;;;;;;;;12.30;99.90;;;;;;5077019;28;19962;-82
2022/05/08 02:28:33;;;;;;;;;;;12.30;99.90;;;;;;5076997;28;20300;-80
2022/05/08 02:30:59;;;;;;;;;;;12.40;99.90;;;;;;5077064;28;19913;-79
2022/05/08 02:33:25;;;;;;;;;;;12.20;99.90;;;;;;5076907;28;19943;-79
2022/05/08 02:35:50;;;;;;;;;;;11.90;99.90;;;;;;5076897;28;19958;-78
2022/05/08 02:38:16;;;;;;;;;;;12.10;99.90;;;;;;5076763;28;20360;-81
2022/05/08 02:40:42;;;;;;;;;;;12.20;99.90;;;;;;5077032;28;19958;-79
2022/05/08 02:43:07;;;;;;;;;;;12.30;99.90;;;;;;5077004;28;19950;-79
2022/05/08 02:45:33;;;;;;;;;;;12.40;99.90;;;;;;5076595;28;19905;-80
2022/05/08 02:47:58;;;;;;;;;;;12.40;99.90;;;;;;5076915;28;20041;-81
2022/05/08 02:50:24;;;;;;;;;;;12.40;99.90;;;;;;5076988;28;19904;-79
2022/05/08 02:52:50;;;;;;;;;;;12.40;99.90;;;;;;5076612;28;20442;-81
2022/05/08 03:00:45;;;;;;;;;;;12.30;99.90;;;;;;5076148;28;19911;-79
2022/05/08 03:03:11;;;;;;;;;;;12.30;99.90;;;;;;5076358;28;19995;-80
2022/05/08 03:05:37;;;;;;;;;;;12.30;99.90;;;;;;5076285;28;19904;-82
2022/05/08 03:08:04;;;;;;;;;;;12.30;99.90;;;;;;5076691;28;20384;-80
2022/05/08 03:11:25;;;;;;;;;;;12.30;99.90;;;;;;5076148;28;19995;-81
2022/05/08 03:13:16;;;;;;;;;;;12.20;99.90;;;;;;5075911;28;19948;-80
2022/05/08 03:15:41;;;;;;;;;;;12.20;99.90;;;;;;5076159;28;19913;-80
2022/05/08 03:18:07;;;;;;;;;;;12.00;99.90;;;;;;5058187;28;19962;-81
2022/05/08 03:20:33;;;;;;;;;;;12.20;99.90;;;;;;5076094;28;19975;-79
2022/05/08 03:22:59;;;;;;;;;;;12.30;99.90;;;;;;5076200;28;19944;-80
2022/05/08 03:25:25;;;;;;;;;;;12.30;99.90;;;;;;5057973;28;19966;-77
2022/05/08 03:27:51;;;;;;;;;;;12.30;99.90;;;;;;5075859;28;19912;-80
2022/05/08 03:30:16;;;;;;;;;;;12.40;99.90;;;;;;5075202;28;20437;-79
2022/05/08 03:32:42;;;;;;;;;;;12.40;99.90;;;;;;5057918;28;19904;-79
2022/05/08 03:35:08;;;;;;;;;;;12.40;99.90;;;;;;5075796;28;19905;-78
2022/05/08 03:37:33;;;;;;;;;;;12.40;99.90;;;;;;5075734;28;19950;-80
2022/05/08 03:39:59;;;;;;;;;;;12.40;99.90;;;;;;5076304;28;19915;-80
2022/05/08 03:42:25;;;;;;;;;;;12.40;99.90;;;;;;5075915;28;20007;-78
2022/05/08 03:44:53;;;;;;;;;;;12.50;99.90;;;;;;5075842;28;19940;-79
2022/05/08 03:47:19;;;;;;;;;;;12.50;99.90;;;;;;5075510;28;19908;-78
2022/05/08 03:49:45;;;;;;;;;;;12.50;99.90;;;;;;5075555;28;20304;-79
2022/05/08 03:52:12;;;;;;;;;;;12.40;99.90;;;;;;5075474;28;19915;-79
2022/05/08 03:54:38;;;;;;;;;;;12.40;99.90;;;;;;5075412;28;19905;-79
2022/05/08 03:57:04;;;;;;;;;;;12.50;99.90;;;;;;5075634;28;19904;-80
2022/05/08 03:59:30;;;;;;;;;;;12.60;99.90;;;;;;5057392;28;19908;-81
2022/05/08 04:01:56;;;;;;;;;;;12.60;99.90;;;;;;5075297;28;19947;-79
2022/05/08 04:04:22;;;;;;;;;;;12.50;99.90;;;;;;5075383;28;19911;-78
2022/05/08 04:06:47;;;;;;;;;;;12.40;99.90;;;;;;5075392;28;19992;-79
2022/05/08 04:09:14;;;;;;;;;;;12.50;99.90;;;;;;5075149;28;19953;-80
2022/05/08 04:11:39;;;;;;;;;;;12.50;99.90;;;;;;5075047;28;20249;-78
2022/05/08 04:14:05;;;;;;;;;;;12.50;99.90;;;;;;5075058;28;19911;-81
2022/05/08 04:16:31;;;;;;;;;;;12.60;99.90;;;;;;5075151;28;19989;-80
2022/05/08 04:18:57;;;;;;;;;;;12.40;99.90;;;;;;5074950;28;19904;-78
2022/05/08 04:21:22;;;;;;;;;;;12.30;99.90;;;;;;5074936;28;19911;-78
2022/05/08 04:26:32;;;;;;;;;;;12.50;99.90;;;;;;5074510;28;20334;-78
2022/05/08 04:28:58;;;;;;;;;;;12.50;99.90;;;;;;5056749;28;19912;-79
2022/05/08 04:31:24;;;;;;;;;;;12.50;99.90;;;;;;5074726;28;19912;-79
2022/05/08 04:33:50;;;;;;;;;;;12.60;99.90;;;;;;5074592;28;20391;-79
2022/05/08 04:36:16;;;;;;;;;;;12.70;99.90;;;;;;5074934;28;19999;-80
2022/05/08 04:38:42;;;;;;;;;;;12.70;99.90;;;;;;5074320;28;19925;-81
2022/05/08 04:41:07;;;;;;;;;;;12.70;99.90;;;;;;5056199;28;19914;-78
2022/05/08 04:43:33;;;;;;;;;;;12.70;99.90;;;;;;5074506;28;19954;-78
2022/05/08 04:45:59;;;;;;;;;;;12.70;99.90;;;;;;5074515;28;19908;-81
2022/05/08 04:48:24;;;;;;;;;;;12.70;99.90;;;;;;5074387;28;20007;-78
2022/05/08 04:50:50;;;;;;;;;;;12.80;99.90;;;;;;5074311;28;19940;-78
2022/05/08 04:53:15;;;;;;;;;;;12.40;99.90;;;;;;5074261;28;19952;-81
2022/05/08 04:55:41;;;;;;;;;;;12.40;99.90;;;;;;5074173;28;20319;-78
2022/05/08 04:58:06;;;;;;;;;;;12.20;99.90;;;;;;5074538;28;19983;-80
2022/05/08 05:00:32;;;;;;;;;;;12.20;99.90;;;;;;5056180;28;19904;-79
2022/05/08 05:02:57;;;;;;;;;;;12.00;99.90;;;;;;5074057;28;19915;-81
2022/05/08 05:05:23;;;;;;;;;;;12.00;99.90;;;;;;5074622;28;19905;-81
2022/05/08 05:07:49;;;;;;;;;;;12.30;99.90;;;;;;5074059;28;19915;-78
2022/05/08 05:10:14;;;;;;;;;;;12.50;99.90;;;;;;5073962;28;19905;-80
2022/05/08 05:12:40;;;;;;;;;;;12.80;99.90;;;;;;5055943;28;19908;-80
2022/05/08 05:15:06;;;;;;;;;;;12.90;99.90;;;;;;5074520;28;19905;-79
2022/05/08 05:17:32;;;;;;;;;;;13.20;99.90;;;;;;5055904;28;20330;-80
2022/05/08 05:19:57;;;;;;;;;;;13.30;99.90;;;;;;5055907;28;19908;-80
2022/05/08 05:22:23;;;;;;;;;;;13.40;99.90;;;;;;5073828;28;19904;-79
2022/05/08 05:24:49;;;;;;;;;;;13.40;99.90;;;;;;5074045;28;19904;-79
2022/05/08 05:27:15;;;;;;;;;;;13.60;99.90;;;;;;5074698;28;19916;-79
2022/05/08 05:29:40;;;;;;;;;;;13.60;99.90;;;;;;5073782;28;19972;-82
2022/05/08 05:32:06;;;;;;;;;;;13.70;99.90;;;;;;5055742;28;19955;-81
2022/05/08 05:34:32;;;;;;;;;;;13.60;99.90;;;;;;5073962;28;19957;-79
2022/05/08 05:36:58;;;;;;;;;;;13.60;99.90;;;;;;5074244;28;20369;-79
2022/05/08 05:39:26;;;;;;;;;;;13.70;99.90;;;;;;5073326;28;20067;-78
2022/05/08 05:41:51;;;;;;;;;;;13.70;99.90;;;;;;5074193;28;19904;-78
2022/05/08 05:44:17;;;;;;;;;;;13.70;99.90;;;;;;5073615;28;20289;-79
2022/05/08 05:49:27;;;;;;;;;;;13.70;99.90;;;;;;5074167;28;20307;-79
2022/05/08 05:51:53;;;;;;;;;;;13.60;99.90;;;;;;5073564;28;19987;-80
2022/05/08 05:54:21;;;;;;;;;;;13.70;99.90;;;;;;5076944;28;19904;-78
2022/05/08 05:56:47;;;;;;;;;;;13.80;99.90;;;;;;5059725;28;19904;-79
2022/05/08 05:59:13;;;;;;;;;;;14.00;99.90;;;;;;5077628;28;19904;-79
2022/05/08 06:01:38;;;;;;;;;;;13.90;99.90;;;;;;5077620;28;19991;-79
2022/05/08 06:04:04;;;;;;;;;;;13.80;99.90;;;;;;5077912;28;19912;-79
2022/05/08 06:06:30;;;;;;;;;;;13.80;99.90;;;;;;5077522;28;19915;-79
2022/05/08 06:08:55;;;;;;;;;;;13.80;99.90;;;;;;5077811;28;20349;-79
2022/05/08 06:11:21;;;;;;;;;;;14.00;99.90;;;;;;5059365;28;19910;-79
2022/05/08 06:13:46;;;;;;;;;;;14.10;99.90;;;;;;5077345;28;19908;-79
2022/05/08 06:16:12;;;;;;;;;;;13.70;99.90;;;;;;5077369;28;19970;-79
2022/05/08 06:18:37;;;;;;;;;;;13.60;99.90;;;;;;5077623;28;19954;-78
2022/05/08 06:21:03;;;;;;;;;;;13.90;99.90;;;;;;5077440;28;19992;-80
2022/05/08 06:23:29;;;;;;;;;;;14.10;99.90;;;;;;5077181;28;19954;-80
2022/05/08 06:25:54;;;;;;;;;;;14.30;99.90;;;;;;5077057;28;19965;-80
2022/05/08 06:28:20;;;;;;;;;;;14.50;99.90;;;;;;5059110;28;19909;-78
2022/05/08 06:30:46;;;;;;;;;;;14.60;99.90;;;;;;5076987;28;19904;-78
2022/05/08 06:33:12;;;;;;;;;;;14.40;99.90;;;;;;5059000;28;20261;-78
2022/05/08 06:35:39;;;;;;;;;;;14.40;99.90;;;;;;5077431;28;19967;-78
2022/05/08 06:38:05;;;;;;;;;;;14.40;99.90;;;;;;5076949;28;19917;-80
2022/05/08 06:40:30;;;;;;;;;;;14.30;99.90;;;;;;5076783;28;19908;-80
2022/05/08 06:42:56;;;;;;;;;;;14.60;99.90;;;;;;5076793;28;19926;-80
2022/05/08 06:45:24;;;;;;;;;;;14.70;99.90;;;;;;5077014;28;19904;-79
2022/05/08 06:47:50;;;;;;;;;;;14.60;99.90;;;;;;5076618;28;19978;-79
2022/05/08 06:50:17;;;;;;;;;;;14.50;99.90;;;;;;5076548;28;20281;-76
2022/05/08 06:52:43;;;;;;;;;;;14.30;99.90;;;;;;5076644;28;19911;-79
2022/05/08 06:55:09;;;;;;;;;;;14.50;99.90;;;;;;5076520;28;19904;-79
2022/05/08 06:57:34;;;;;;;;;;;14.60;99.90;;;;;;5076576;28;19955;-79
2022/05/08 07:02:45;;;;;;;;;;;14.70;99.90;;;;;;5076154;28;19958;-80
2022/05/08 07:05:11;;;;;;;;;;;14.90;99.90;;;;;;5075248;28;19908;-79
2022/05/08 07:07:36;;;;;;;;;;;14.80;99.90;;;;;;5076489;28;19916;-80
2022/05/08 07:10:03;;;;;;;;;;;15.00;99.90;;;;;;5076480;28;20383;-80
2022/05/08 07:12:28;;;;;;;;;;;15.20;99.90;;;;;;5058189;28;19904;-80
2022/05/08 07:14:54;;;;;;;;;;;15.10;99.90;;;;;;5076285;28;19911;-81
2022/05/08 07:17:21;;;;;;;;;;;15.30;99.90;;;;;;5076658;28;20034;-81
2022/05/08 07:19:48;;;;;;;;;;;15.50;99.90;;;;;;5076085;28;19927;-79
2022/05/08 07:22:16;;;;;;;;;;;15.50;99.90;;;;;;5076050;28;19950;-79
2022/05/08 07:24:42;;;;;;;;;;;15.60;99.90;;;;;;5057827;28;19912;-80
2022/05/08 07:27:11;;;;;;;;;;;15.80;99.90;;;;;;5076565;28;19908;-79
2022/05/08 07:29:37;;;;;;;;;;;15.80;99.90;;;;;;5075829;28;19957;-81
2022/05/08 07:32:02;;;;;;;;;;;15.90;99.90;;;;;;5076124;28;20365;-82
2022/05/08 07:37:12;;;;;;;;;;;16.20;99.90;;;;;;5075458;28;19946;-81
2022/05/08 07:39:37;;;;;;;;;;;16.40;99.90;;;;;;5075771;28;20345;-78
2022/05/08 07:42:03;;;;;;;;;;;16.60;99.90;;;;;;5075715;28;19905;-80
2022/05/08 07:44:29;;;;;;;;;;;16.60;99.90;;;;;;5075649;28;19936;-79
2022/05/08 07:46:54;;;;;;;;;;;16.40;99.90;;;;;;5075502;28;20391;-81
2022/05/08 07:49:20;;;;;;;;;;;16.40;99.90;;;;;;5075629;28;19955;-80
2022/05/08 07:51:45;;;;;;;;;;;16.30;99.90;;;;;;5075726;28;19905;-80
2022/05/08 07:54:11;;;;;;;;;;;16.50;99.90;;;;;;5076052;28;19904;-80
2022/05/08 07:56:37;;;;;;;;;;;16.50;99.90;;;;;;5075598;28;19904;-81
2022/05/08 07:59:02;;;;;;;;;;;16.70;99.90;;;;;;5057541;28;19905;-78
2022/05/08 08:01:28;;;;;;;;;;;16.90;99.90;;;;;;5075466;28;19911;-78
2022/05/08 08:03:54;;;;;;;;;;;17.10;99.90;;;;;;5075352;28;19908;-80
2022/05/08 08:06:19;;;;;;;;;;;17.20;99.90;;;;;;5075393;28;19909;-79
2022/05/08 08:08:45;;;;;;;;;;;17.30;99.90;;;;;;5075860;28;19935;-81
2022/05/08 08:11:11;;;;;;;;;;;17.30;99.90;;;;;;5075221;28;19915;-80
2022/05/08 08:13:37;;;;;;;;;;;17.50;99.90;;;;;;5075166;28;19904;-79
2022/05/08 08:16:03;;;;;;;;;;;17.40;99.90;;;;;;5075352;28;20348;-79
2022/05/08 08:18:29;;;;;;;;;;;17.40;99.90;;;;;;5075081;28;19911;-80
2022/05/08 08:20:55;;;;;;;;;;;17.70;99.90;;;;;;5075216;28;20353;-80
2022/05/08 08:23:21;;;;;;;;;;;17.60;99.90;;;;;;5074861;28;19970;-79
2022/05/08 08:25:46;;;;;;;;;;;17.70;99.90;;;;;;5074762;28;19916;-81
2022/05/08 08:28:12;;;;;;;;;;;17.90;99.90;;;;;;5056894;28;19912;-78
2022/05/08 08:30:38;;;;;;;;;;;18.30;99.90;;;;;;5074737;28;20033;-78
2022/05/08 08:33:03;;;;;;;;;;;18.40;99.90;;;;;;5074783;28;20372;-81
2022/05/08 08:35:30;;;;;;;;;;;18.60;99.90;;;;;;5074627;28;19904;-82
2022/05/08 08:37:55;;;;;;;;;;;18.60;99.90;;;;;;5074293;28;20422;-80
2022/05/08 08:40:21;;;;;;;;;;;18.70;99.90;;;;;;5074860;28;19904;-78
2022/05/08 08:42:48;;;;;;;;;;;18.70;99.90;;;;;;5056551;28;19911;-78
2022/05/08 08:48:03;;;;;;;;;;;19.20;99.90;;;;;;5074095;28;20406;-80
2022/05/08 08:50:29;;;;;;;;;;;19.50;99.90;;;;;;5074224;28;19911;-80
2022/05/08 08:52:56;;;;;;;;;;;19.30;99.90;;;;;;5074466;28;19904;-80
2022/05/08 08:55:22;;;;;;;;;;;19.00;99.90;;;;;;5074329;28;19970;-79
2022/05/08 08:57:48;;;;;;;;;;;18.80;99.90;;;;;;5074181;28;20369;-81
2022/05/08 09:00:14;;;;;;;;;;;19.00;99.90;;;;;;5074217;28;19930;-81
2022/05/08 09:02:40;;;;;;;;;;;19.20;99.90;;;;;;5074419;28;19904;-79
2022/05/08 09:05:07;;;;;;;;;;;19.30;99.90;;;;;;5074228;28;20391;-78
2022/05/08 09:07:38;;;;;;;;;;;19.80;99.90;;;;;;5074058;28;19916;-81
2022/05/08 09:10:07;;;;;;;;;;;19.60;99.90;;;;;;5074027;28;19905;-81
2022/05/08 09:12:32;;;;;;;;;;;20.40;99.90;;;;;;5073903;28;19904;-80
2022/05/08 09:14:58;;;;;;;;;;;20.70;99.90;;;;;;5056014;28;19957;-79
2022/05/08 09:17:24;;;;;;;;;;;20.90;99.90;;;;;;5074200;28;19908;-78
2022/05/08 09:19:49;;;;;;;;;;;20.70;99.90;;;;;;5073885;28;19904;-79
2022/05/08 09:22:17;;;;;;;;;;;20.90;99.90;;;;;;5056173;28;19909;-79
2022/05/08 09:24:54;;;;;;;;;;;21.30;99.90;;;;;;5073766;28;20376;-79
2022/05/08 09:27:19;;;;;;;;;;;21.70;99.90;;;;;;5055383;28;19909;-80
2022/05/08 09:29:45;;;;;;;;;;;22.10;99.90;;;;;;5055518;28;19904;-80
2022/05/08 09:32:29;;;;;;;;;;;22.10;99.30;;;;;;5073734;28;19908;-79
2022/05/08 09:34:57;;;;;;;;;;;22.10;99.60;;;;;;5074038;28;19905;-80
2022/05/08 09:37:23;;;;;;;;;;;22.10;98.90;;;;;;5073648;28;19918;-81
2022/05/08 09:39:48;;;;;;;;;;;21.90;99.70;;;;;;5073824;28;19947;-81
2022/05/08 09:42:32;;;;;;;;;;;21.80;99.60;;;;;;5073670;28;19951;-79
2022/05/08 09:45:07;;;;;;;;;;;22.30;99.90;;;;;;5055653;28;19908;-81
2022/05/08 09:47:42;;;;;;;;;;;22.40;97.50;;;;;;5073519;28;19951;-80
2022/05/08 09:50:09;;;;;;;;;;;22.40;96.70;;;;;;5073741;28;19908;-80
2022/05/08 09:52:36;;;;;;;;;;;22.90;95.00;;;;;;5073534;28;19904;-80
2022/05/08 09:55:02;;;;;;;;;;;24.00;93.60;;;;;;5073713;28;19915;-80
2022/05/08 09:57:29;;;;;;;;;;;25.00;87.00;;;;;;5055506;28;19966;-79
2022/05/08 09:59:54;;;;;;;;;;;25.20;86.80;;;;;;5073466;28;19904;-79
2022/05/08 10:02:21;;;;;;;;;;;25.60;85.20;;;;;;5073504;28;20281;-80
2022/05/08 10:04:47;;;;;;;;;;;26.00;80.70;;;;;;5073290;28;20391;-76
2022/05/08 10:07:13;;;;;;;;;;;26.70;78.80;;;;;;5073278;28;20490;-80
2022/05/08 10:15:19;;;;;;;;;;;26.70;76.20;;;;;;5073240;28;19953;-80
2022/05/08 10:17:45;;;;;;;;;;;26.70;74.50;;;;;;5073399;28;19904;-80
2022/05/08 10:20:10;;;;;;;;;;;26.30;75.70;;;;;;5055273;28;19909;-79
2022/05/08 10:22:54;;;;;;;;;;;27.60;71.30;;;;;;5073515;28;19905;-78
2022/05/08 10:25:19;;;;;;;;;;;27.70;69.50;;;;;;5073855;28;19912;-81
2022/05/08 10:28:04;;;;;;;;;;;27.60;70.10;;;;;;5073072;28;19912;-80
2022/05/08 10:30:30;;;;;;;;;;;27.60;68.50;;;;;;5073094;28;19949;-78
2022/05/08 10:32:55;;;;;;;;;;;30.00;65.80;;;;;;5073535;28;19991;-77
2022/05/08 10:35:25;;;;;;;;;;;34.20;57.50;;;;;;5073076;28;19951;-79
2022/05/08 10:38:03;;;;;;;;;;;37.30;48.90;;;;;;5073309;28;20437;-78
2022/05/08 10:40:28;;;;;;;;;;;37.80;44.60;;;;;;5076150;28;19911;-77
2022/05/08 10:42:59;;;;;;;;;;;36.10;46.00;;;;;;5076814;28;19904;-78
2022/05/08 10:45:30;;;;;;;;;;;34.60;49.00;;;;;;5076606;28;19904;-79
2022/05/08 10:47:56;;;;;;;;;;;32.40;49.90;;;;;;5058526;28;19915;-78
2022/05/08 10:50:22;;;;;;;;;;;30.80;53.00;;;;;;5077065;28;19904;-79
2022/05/08 10:52:48;;;;;;;;;;;34.40;51.30;;;;;;5076355;28;19905;-78
2022/05/08 10:55:17;;;;;;;;;;;33.90;49.60;;;;;;5076553;28;19905;-79
2022/05/08 10:57:43;;;;;;;;;;;37.00;46.60;;;;;;5076512;28;19904;-76
2022/05/08 11:00:11;;;;;;;;;;;37.30;44.30;;;;;;5076410;28;19950;-78
2022/05/08 11:02:57;;;;;;;;;;;34.60;46.50;;;;;;5076435;28;19936;-78
2022/05/08 11:05:24;;;;;;;;;;;35.70;46.80;;;;;;5075750;28;19904;-80
2022/05/08 11:07:52;;;;;;;;;;;38.60;43.90;;;;;;5076375;28;19909;-78
2022/05/08 11:10:21;;;;;;;;;;;39.80;42.20;;;;;;5076441;28;19904;-80
2022/05/08 11:13:05;;;;;;;;;;;39.50;41.00;;;;;;5076318;28;20283;-78
2022/05/08 11:15:31;;;;;;;;;;;39.80;41.10;;;;;;5076374;28;19904;-77
2022/05/08 11:18:04;;;;;;;;;;;39.40;41.40;;;;;;5076462;28;19991;-80
2022/05/08 11:20:31;;;;;;;;;;;39.30;41.60;;;;;;5076137;28;19939;-78
2022/05/08 11:22:57;;;;;;;;;;;38.10;42.00;;;;;;5076301;28;19928;-75
2022/05/08 11:25:22;;;;;;;;;;;34.80;45.00;;;;;;5075989;28;20281;-78
2022/05/08 11:27:51;;;;;;;;;;;34.20;47.20;;;;;;5076215;28;19958;-79
2022/05/08 11:30:37;;;;;;;;;;;36.20;45.30;;;;;;5075909;28;19953;-77
2022/05/08 11:36:07;;;;;;;;;;;36.00;45.10;;;;;;5075685;28;19969;-80
2022/05/08 11:38:50;;;;;;;;;;;37.10;43.90;;;;;;5075705;28;19917;-79
2022/05/08 11:41:17;;;;;;;;;;;38.20;42.30;;;;;;5075803;28;20003;-80
2022/05/08 11:43:46;;;;;;;;;;;39.70;40.70;;;;;;5075761;28;19905;-76
2022/05/08 11:46:15;;;;;;;;;;;40.60;40.30;;;;;;5075704;28;19950;-80
2022/05/08 11:48:42;;;;;;;;;;;39.70;40.30;;;;;;5075877;28;20065;-79
2022/05/08 11:51:09;;;;;;;;;;;41.10;39.80;;;;;;5056997;28;19951;-78
2022/05/08 11:53:38;;;;;;;;;;;41.10;39.60;;;;;;5075691;28;20318;-78
2022/05/08 11:56:20;;;;;;;;;;;39.00;40.10;;;;;;5075605;28;19904;-79
2022/05/08 11:58:47;;;;;;;;;;;38.60;41.20;;;;;;5075480;28;19904;-80
2022/05/08 12:01:22;;;;;;;;;;;37.70;42.70;;;;;;5075674;28;19950;-77
2022/05/08 12:03:47;;;;;;;;;;;40.30;40.30;;;;;;5075346;28;19954;-80
2022/05/08 12:06:13;;;;;;;;;;;42.60;38.20;;;;;;5075199;28;20003;-79
2022/05/08 12:08:39;;;;;;;;;;;43.00;37.30;;;;;;5075397;28;19911;-78
2022/05/08 12:11:05;;;;;;;;;;;43.70;37.50;;;;;;5057193;28;19954;-79
2022/05/08 12:13:34;;;;;;;;;;;45.30;36.40;;;;;;5075417;28;19909;-78
2022/05/08 12:16:12;;;;;;;;;;;44.70;35.40;;;;;;5075078;28;19940;-80
2022/05/08 12:18:58;;;;;;;;;;;45.00;35.50;;;;;;5075115;28;19908;-79
2022/05/08 12:21:27;;;;;;;;;;;44.50;35.00;;;;;;5074842;28;20003;-79
2022/05/08 12:23:53;;;;;;;;;;;42.30;37.10;;;;;;5075166;28;19904;-77
2022/05/08 12:26:20;;;;;;;;;;;41.40;36.50;;;;;;5074942;28;19930;-79
2022/05/08 12:28:46;;;;;;;;;;;42.10;36.90;;;;;;5074845;28;19954;-78
2022/05/08 12:31:11;;;;;;;;;;;43.40;35.70;;;;;;5074753;28;20307;-77
2022/05/08 12:33:37;;;;;;;;;;;45.00;35.00;;;;;;5056819;28;20410;-78
2022/05/08 12:36:02;;;;;;;;;;;45.60;34.70;;;;;;5075016;28;19951;-80
2022/05/08 12:38:28;;;;;;;;;;;45.30;33.90;;;;;;5074446;28;19923;-76
2022/05/08 12:40:54;;;;;;;;;;;45.10;34.10;;;;;;5074544;28;19904;-79
2022/05/08 12:43:19;;;;;;;;;;;45.50;34.10;;;;;;5074548;28;19904;-78
2022/05/08 12:45:46;;;;;;;;;;;45.20;33.20;;;;;;5074473;28;19905;-77
2022/05/08 12:48:12;;;;;;;;;;;43.10;35.10;;;;;;5074943;28;19920;-77
2022/05/08 12:50:37;;;;;;;;;;;43.90;34.90;;;;;;5056421;28;19904;-78
2022/05/08 12:53:03;;;;;;;;;;;44.60;34.40;;;;;;5074418;28;20364;-77
2022/05/08 12:55:28;;;;;;;;;;;44.90;33.60;;;;;;5074245;28;19989;-76
2022/05/08 13:00:41;;;;;;;;;;;44.50;33.70;;;;;;5074111;28;20446;-78
2022/05/08 13:03:11;;;;;;;;;;;43.90;34.30;;;;;;5073378;28;19912;-76
2022/05/08 13:05:36;;;;;;;;;;;45.60;34.00;;;;;;5074424;28;19911;-79
2022/05/08 13:08:02;;;;;;;;;;;44.40;33.40;;;;;;5074030;28;19908;-80
2022/05/08 13:10:28;;;;;;;;;;;44.90;34.20;;;;;;5074023;28;19938;-78
2022/05/08 13:12:53;;;;;;;;;;;44.50;34.00;;;;;;5074058;28;20340;-78
2022/05/08 13:15:19;;;;;;;;;;;43.30;34.30;;;;;;5073964;28;19904;-77
2022/05/08 13:17:44;;;;;;;;;;;41.20;35.40;;;;;;5073955;28;20257;-79
2022/05/08 13:20:10;;;;;;;;;;;38.60;37.70;;;;;;5073945;28;19911;-78
2022/05/08 13:22:40;;;;;;;;;;;38.40;38.10;;;;;;5073890;28;19915;-78
2022/05/08 13:25:08;;;;;;;;;;;38.20;37.70;;;;;;5073859;28;20433;-77
2022/05/08 13:27:34;;;;;;;;;;;38.50;38.80;;;;;;5055756;28;19909;-79
2022/05/08 13:29:59;;;;;;;;;;;40.40;37.80;;;;;;5073865;28;20409;-78
2022/05/08 13:32:25;;;;;;;;;;;41.20;36.10;;;;;;5073876;28;19904;-78
2022/05/08 13:34:51;;;;;;;;;;;40.30;36.80;;;;;;5073805;28;19908;-77
2022/05/08 13:37:16;;;;;;;;;;;38.40;37.10;;;;;;5073480;28;19931;-77
2022/05/08 13:39:42;;;;;;;;;;;39.60;37.60;;;;;;5074102;28;20387;-77
2022/05/08 13:42:08;;;;;;;;;;;39.20;38.00;;;;;;5074227;28;19908;-77
2022/05/08 13:44:33;;;;;;;;;;;38.70;37.70;;;;;;5073699;28;20407;-77
2022/05/08 13:46:59;;;;;;;;;;;38.60;37.80;;;;;;5074084;28;20008;-79
2022/05/08 13:49:25;;;;;;;;;;;38.40;37.50;;;;;;5073876;28;19948;-79
2022/05/08 13:51:51;;;;;;;;;;;39.00;37.80;;;;;;5073603;28;19908;-77
2022/05/08 13:54:17;;;;;;;;;;;38.10;38.10;;;;;;5055577;28;20382;-78
2022/05/08 13:56:45;;;;;;;;;;;38.60;37.90;;;;;;5073566;28;19904;-79
2022/05/08 13:59:11;;;;;;;;;;;37.80;38.90;;;;;;5073721;28;19908;-77
2022/05/08 14:01:36;;;;;;;;;;;36.70;39.00;;;;;;5073545;28;19911;-77
2022/05/08 14:04:02;;;;;;;;;;;37.10;40.40;;;;;;5073503;28;19939;-76
2022/05/08 14:06:29;;;;;;;;;;;38.10;39.60;;;;;;5073411;28;19908;-79
2022/05/08 14:08:54;;;;;;;;;;;38.30;39.20;;;;;;5073418;28;19904;-77
2022/05/08 14:11:21;;;;;;;;;;;38.20;39.30;;;;;;5073578;28;19979;-77
2022/05/08 14:13:46;;;;;;;;;;;36.30;40.50;;;;;;5055696;28;19942;-77
2022/05/08 14:16:12;;;;;;;;;;;36.30;40.90;;;;;;5077391;28;19993;-79
2022/05/08 14:18:37;;;;;;;;;;;35.90;41.30;;;;;;5077351;28;19904;-78
2022/05/08 14:21:03;;;;;;;;;;;36.20;41.50;;;;;;5077295;28;20360;-78
2022/05/08 14:23:29;;;;;;;;;;;35.60;40.60;;;;;;5077285;28;20357;-78
2022/05/08 14:25:55;;;;;;;;;;;34.70;41.80;;;;;;5077279;28;19927;-78
2022/05/08 14:28:21;;;;;;;;;;;33.70;42.50;;;;;;5077073;28;19915;-77
2022/05/08 14:36:15;;;;;;;;;;;36.50;41.50;;;;;;5077074;28;20390;-77
2022/05/08 14:38:41;;;;;;;;;;;36.30;41.60;;;;;;5076958;28;19944;-77
2022/05/08 14:41:06;;;;;;;;;;;36.30;41.60;;;;;;5058971;28;19932;-78
2022/05/08 14:43:32;;;;;;;;;;;36.90;41.20;;;;;;5058962;28;19904;-77
2022/05/08 14:45:58;;;;;;;;;;;37.40;41.10;;;;;;5076767;28;20353;-77
2022/05/08 14:48:25;;;;;;;;;;;36.80;41.30;;;;;;5077003;28;19965;-77
2022/05/08 14:50:51;;;;;;;;;;;37.10;41.00;;;;;;5076759;28;19908;-79
2022/05/08 14:53:16;;;;;;;;;;;37.00;41.00;;;;;;5076689;28;20379;-77